sensor_id;sensor_type;location;lat;lon;timestamp;P1;durP1;ratioP1;P2;durP2;ratioP2
85017;SDS011;75340;52.622;13.496;2024-01-10T00:01:25;55.08;;;19.92;;
85017;SDS011;75340;52.622;13.496;2024-01-10T00:03:55;54.97;;;20.50;;
85017;SDS011;75340;52.622;13.496;2024-01-10T00:06:21;54.13;;;19.67;;
85017;SDS011;75340;52.622;13.496;2024-01-10T00:08:48;52.30;;;19.90;;
85017;SDS011;75340;52.622;13.496;2024-01-10T00:11:14;59.45;;;20.38;;
85017;SDS011;75340;52.622;13.496;2024-01-10T00:13:40;49.53;;;20.10;;
85017;SDS011;75340;52.622;13.496;2024-01-10T00:16:06;48.05;;;19.30;;
85017;SDS011;75340;52.622;13.496;2024-01-10T00:18:33;51.63;;;19.65;;
85017;SDS011;75340;52.622;13.496;2024-01-10T00:20:59;52.78;;;18.60;;
85017;SDS011;75340;52.622;13.496;2024-01-10T00:23:25;57.13;;;18.55;;
85017;SDS011;75340;52.622;13.496;2024-01-10T00:25:51;60.17;;;20.15;;
85017;SDS011;75340;52.622;13.496;2024-01-10T00:28:17;55.10;;;20.35;;
85017;SDS011;75340;52.622;13.496;2024-01-10T00:30:46;50.75;;;20.45;;
85017;SDS011;75340;52.622;13.496;2024-01-10T00:33:13;58.97;;;20.70;;
85017;SDS011;75340;52.622;13.496;2024-01-10T00:35:39;51.70;;;19.52;;
85017;SDS011;75340;52.622;13.496;2024-01-10T00:38:05;51.90;;;19.55;;
85017;SDS011;75340;52.622;13.496;2024-01-10T00:40:31;57.13;;;21.55;;
85017;SDS011;75340;52.622;13.496;2024-01-10T00:42:57;55.88;;;20.77;;
85017;SDS011;75340;52.622;13.496;2024-01-10T00:45:23;50.92;;;19.30;;
85017;SDS011;75340;52.622;13.496;2024-01-10T00:47:49;54.92;;;20.63;;
85017;SDS011;75340;52.622;13.496;2024-01-10T00:50:15;53.03;;;20.33;;
85017;SDS011;75340;52.622;13.496;2024-01-10T00:52:42;50.97;;;19.20;;
85017;SDS011;75340;52.622;13.496;2024-01-10T00:55:08;57.55;;;21.98;;
85017;SDS011;75340;52.622;13.496;2024-01-10T00:57:34;58.67;;;21.65;;
85017;SDS011;75340;52.622;13.496;2024-01-10T01:00:00;61.42;;;22.40;;
85017;SDS011;75340;52.622;13.496;2024-01-10T01:02:26;54.80;;;20.45;;
85017;SDS011;75340;52.622;13.496;2024-01-10T01:04:52;57.03;;;22.23;;
85017;SDS011;75340;52.622;13.496;2024-01-10T01:07:18;55.60;;;21.17;;
85017;SDS011;75340;52.622;13.496;2024-01-10T01:09:44;57.83;;;21.98;;
85017;SDS011;75340;52.622;13.496;2024-01-10T01:12:10;61.22;;;19.38;;
85017;SDS011;75340;52.622;13.496;2024-01-10T01:14:36;55.85;;;20.80;;
85017;SDS011;75340;52.622;13.496;2024-01-10T01:17:02;51.53;;;19.67;;
85017;SDS011;75340;52.622;13.496;2024-01-10T01:19:28;55.05;;;21.83;;
85017;SDS011;75340;52.622;13.496;2024-01-10T01:21:54;55.75;;;20.25;;
85017;SDS011;75340;52.622;13.496;2024-01-10T01:24:20;62.65;;;22.42;;
85017;SDS011;75340;52.622;13.496;2024-01-10T01:26:46;58.17;;;20.30;;
85017;SDS011;75340;52.622;13.496;2024-01-10T01:29:12;56.60;;;20.27;;
85017;SDS011;75340;52.622;13.496;2024-01-10T01:31:38;59.28;;;21.52;;
85017;SDS011;75340;52.622;13.496;2024-01-10T01:34:04;60.22;;;21.90;;
85017;SDS011;75340;52.622;13.496;2024-01-10T01:36:30;56.88;;;22.17;;
85017;SDS011;75340;52.622;13.496;2024-01-10T01:38:56;53.80;;;21.10;;
85017;SDS011;75340;52.622;13.496;2024-01-10T01:41:22;50.35;;;19.58;;
85017;SDS011;75340;52.622;13.496;2024-01-10T01:43:48;56.40;;;20.63;;
85017;SDS011;75340;52.622;13.496;2024-01-10T01:46:14;59.53;;;21.98;;
85017;SDS011;75340;52.622;13.496;2024-01-10T01:48:40;58.88;;;21.75;;
85017;SDS011;75340;52.622;13.496;2024-01-10T01:51:07;56.20;;;21.58;;
85017;SDS011;75340;52.622;13.496;2024-01-10T01:53:34;65.03;;;22.92;;
85017;SDS011;75340;52.622;13.496;2024-01-10T01:56:02;54.83;;;21.83;;
85017;SDS011;75340;52.622;13.496;2024-01-10T01:58:28;70.57;;;25.90;;
85017;SDS011;75340;52.622;13.496;2024-01-10T02:00:55;71.00;;;26.13;;
85017;SDS011;75340;52.622;13.496;2024-01-10T02:03:21;69.00;;;26.40;;
85017;SDS011;75340;52.622;13.496;2024-01-10T02:05:47;70.35;;;25.45;;
85017;SDS011;75340;52.622;13.496;2024-01-10T02:08:13;64.43;;;23.83;;
85017;SDS011;75340;52.622;13.496;2024-01-10T02:10:39;64.10;;;25.25;;
85017;SDS011;75340;52.622;13.496;2024-01-10T02:13:05;74.10;;;25.88;;
85017;SDS011;75340;52.622;13.496;2024-01-10T02:15:33;75.28;;;25.63;;
85017;SDS011;75340;52.622;13.496;2024-01-10T02:17:59;62.35;;;23.67;;
85017;SDS011;75340;52.622;13.496;2024-01-10T02:20:26;69.20;;;25.08;;
85017;SDS011;75340;52.622;13.496;2024-01-10T02:22:52;62.60;;;26.15;;
85017;SDS011;75340;52.622;13.496;2024-01-10T02:25:18;72.55;;;26.15;;
85017;SDS011;75340;52.622;13.496;2024-01-10T02:27:44;67.25;;;24.70;;
85017;SDS011;75340;52.622;13.496;2024-01-10T02:30:10;70.25;;;25.92;;
85017;SDS011;75340;52.622;13.496;2024-01-10T02:32:36;66.93;;;24.58;;
85017;SDS011;75340;52.622;13.496;2024-01-10T02:35:03;64.85;;;23.60;;
85017;SDS011;75340;52.622;13.496;2024-01-10T02:37:29;67.97;;;25.08;;
85017;SDS011;75340;52.622;13.496;2024-01-10T02:39:55;70.15;;;25.00;;
85017;SDS011;75340;52.622;13.496;2024-01-10T02:42:21;67.13;;;24.40;;
85017;SDS011;75340;52.622;13.496;2024-01-10T02:44:47;67.97;;;24.65;;
85017;SDS011;75340;52.622;13.496;2024-01-10T02:47:13;74.15;;;26.23;;
85017;SDS011;75340;52.622;13.496;2024-01-10T02:49:39;69.35;;;24.42;;
85017;SDS011;75340;52.622;13.496;2024-01-10T02:52:05;69.13;;;24.58;;
85017;SDS011;75340;52.622;13.496;2024-01-10T02:54:31;66.88;;;24.50;;
85017;SDS011;75340;52.622;13.496;2024-01-10T02:56:57;69.63;;;24.67;;
85017;SDS011;75340;52.622;13.496;2024-01-10T02:59:23;68.25;;;26.27;;
85017;SDS011;75340;52.622;13.496;2024-01-10T03:01:49;77.45;;;25.35;;
85017;SDS011;75340;52.622;13.496;2024-01-10T03:04:15;72.13;;;25.00;;
85017;SDS011;75340;52.622;13.496;2024-01-10T03:06:41;72.55;;;26.20;;
85017;SDS011;75340;52.622;13.496;2024-01-10T03:09:07;71.30;;;25.00;;
85017;SDS011;75340;52.622;13.496;2024-01-10T03:11:33;70.18;;;24.63;;
85017;SDS011;75340;52.622;13.496;2024-01-10T03:14:01;61.67;;;24.55;;
85017;SDS011;75340;52.622;13.496;2024-01-10T03:16:29;67.75;;;24.35;;
85017;SDS011;75340;52.622;13.496;2024-01-10T03:18:55;73.65;;;25.67;;
85017;SDS011;75340;52.622;13.496;2024-01-10T03:21:21;77.93;;;27.50;;
85017;SDS011;75340;52.622;13.496;2024-01-10T03:23:52;75.40;;;26.83;;
85017;SDS011;75340;52.622;13.496;2024-01-10T03:26:19;66.38;;;24.38;;
85017;SDS011;75340;52.622;13.496;2024-01-10T03:28:45;73.65;;;26.80;;
85017;SDS011;75340;52.622;13.496;2024-01-10T03:31:11;68.72;;;24.95;;
85017;SDS011;75340;52.622;13.496;2024-01-10T03:33:37;81.53;;;26.02;;
85017;SDS011;75340;52.622;13.496;2024-01-10T03:36:04;72.78;;;25.15;;
85017;SDS011;75340;52.622;13.496;2024-01-10T03:38:30;69.10;;;24.50;;
85017;SDS011;75340;52.622;13.496;2024-01-10T03:40:56;68.05;;;25.63;;
85017;SDS011;75340;52.622;13.496;2024-01-10T03:43:22;79.13;;;26.55;;
85017;SDS011;75340;52.622;13.496;2024-01-10T03:45:48;69.07;;;25.45;;
85017;SDS011;75340;52.622;13.496;2024-01-10T03:48:14;72.45;;;25.40;;
85017;SDS011;75340;52.622;13.496;2024-01-10T03:50:40;63.42;;;24.65;;
85017;SDS011;75340;52.622;13.496;2024-01-10T03:53:06;74.07;;;26.65;;
85017;SDS011;75340;52.622;13.496;2024-01-10T03:55:32;67.15;;;23.15;;
85017;SDS011;75340;52.622;13.496;2024-01-10T03:57:58;68.60;;;24.63;;
85017;SDS011;75340;52.622;13.496;2024-01-10T04:00:25;72.05;;;25.42;;
85017;SDS011;75340;52.622;13.496;2024-01-10T04:02:51;63.80;;;24.40;;
85017;SDS011;75340;52.622;13.496;2024-01-10T04:05:17;72.60;;;24.05;;
85017;SDS011;75340;52.622;13.496;2024-01-10T04:07:44;78.90;;;26.92;;
85017;SDS011;75340;52.622;13.496;2024-01-10T04:10:10;77.82;;;26.35;;
85017;SDS011;75340;52.622;13.496;2024-01-10T04:12:39;72.82;;;26.33;;
85017;SDS011;75340;52.622;13.496;2024-01-10T04:15:05;71.28;;;25.13;;
85017;SDS011;75340;52.622;13.496;2024-01-10T04:17:31;68.60;;;25.27;;
85017;SDS011;75340;52.622;13.496;2024-01-10T04:19:58;69.90;;;25.55;;
85017;SDS011;75340;52.622;13.496;2024-01-10T04:22:24;65.82;;;25.05;;
85017;SDS011;75340;52.622;13.496;2024-01-10T04:24:50;75.63;;;26.73;;
85017;SDS011;75340;52.622;13.496;2024-01-10T04:27:16;69.38;;;24.73;;
85017;SDS011;75340;52.622;13.496;2024-01-10T04:29:43;71.15;;;26.60;;
85017;SDS011;75340;52.622;13.496;2024-01-10T04:32:09;73.95;;;27.52;;
85017;SDS011;75340;52.622;13.496;2024-01-10T04:34:35;75.47;;;25.48;;
85017;SDS011;75340;52.622;13.496;2024-01-10T04:37:01;72.43;;;24.52;;
85017;SDS011;75340;52.622;13.496;2024-01-10T04:39:27;66.40;;;24.33;;
85017;SDS011;75340;52.622;13.496;2024-01-10T04:41:53;72.82;;;24.63;;
85017;SDS011;75340;52.622;13.496;2024-01-10T04:44:19;69.10;;;23.98;;
85017;SDS011;75340;52.622;13.496;2024-01-10T04:46:45;66.60;;;24.20;;
85017;SDS011;75340;52.622;13.496;2024-01-10T04:49:11;65.60;;;24.05;;
85017;SDS011;75340;52.622;13.496;2024-01-10T04:51:37;76.32;;;26.00;;
85017;SDS011;75340;52.622;13.496;2024-01-10T04:54:03;72.13;;;24.83;;
85017;SDS011;75340;52.622;13.496;2024-01-10T04:56:29;70.00;;;24.40;;
85017;SDS011;75340;52.622;13.496;2024-01-10T04:58:55;68.57;;;25.05;;
85017;SDS011;75340;52.622;13.496;2024-01-10T05:01:21;59.72;;;24.17;;
85017;SDS011;75340;52.622;13.496;2024-01-10T05:03:48;69.15;;;24.98;;
85017;SDS011;75340;52.622;13.496;2024-01-10T05:06:14;68.00;;;25.15;;
85017;SDS011;75340;52.622;13.496;2024-01-10T05:08:40;67.43;;;24.55;;
85017;SDS011;75340;52.622;13.496;2024-01-10T05:11:06;62.25;;;24.52;;
85017;SDS011;75340;52.622;13.496;2024-01-10T05:13:32;71.63;;;25.52;;
85017;SDS011;75340;52.622;13.496;2024-01-10T05:15:58;68.50;;;25.23;;
85017;SDS011;75340;52.622;13.496;2024-01-10T05:18:25;67.32;;;25.05;;
85017;SDS011;75340;52.622;13.496;2024-01-10T05:20:51;63.28;;;25.25;;
85017;SDS011;75340;52.622;13.496;2024-01-10T05:23:17;72.32;;;25.27;;
85017;SDS011;75340;52.622;13.496;2024-01-10T05:25:43;63.55;;;24.38;;
85017;SDS011;75340;52.622;13.496;2024-01-10T05:28:09;76.60;;;25.25;;
85017;SDS011;75340;52.622;13.496;2024-01-10T05:30:35;77.78;;;27.52;;
85017;SDS011;75340;52.622;13.496;2024-01-10T05:33:01;66.60;;;23.52;;
85017;SDS011;75340;52.622;13.496;2024-01-10T05:35:27;70.30;;;24.65;;
85017;SDS011;75340;52.622;13.496;2024-01-10T05:37:53;63.78;;;24.85;;
85017;SDS011;75340;52.622;13.496;2024-01-10T05:40:19;60.22;;;23.50;;
85017;SDS011;75340;52.622;13.496;2024-01-10T05:42:45;63.50;;;23.55;;
85017;SDS011;75340;52.622;13.496;2024-01-10T05:45:12;66.60;;;23.45;;
85017;SDS011;75340;52.622;13.496;2024-01-10T05:47:38;70.93;;;23.38;;
85017;SDS011;75340;52.622;13.496;2024-01-10T05:50:04;63.20;;;23.33;;
85017;SDS011;75340;52.622;13.496;2024-01-10T05:52:33;73.00;;;24.33;;
85017;SDS011;75340;52.622;13.496;2024-01-10T05:54:59;66.82;;;23.55;;
85017;SDS011;75340;52.622;13.496;2024-01-10T05:57:27;65.45;;;23.88;;
85017;SDS011;75340;52.622;13.496;2024-01-10T05:59:53;63.17;;;23.42;;
85017;SDS011;75340;52.622;13.496;2024-01-10T06:02:22;62.75;;;23.67;;
85017;SDS011;75340;52.622;13.496;2024-01-10T06:04:49;64.43;;;23.20;;
85017;SDS011;75340;52.622;13.496;2024-01-10T06:07:15;62.05;;;24.13;;
85017;SDS011;75340;52.622;13.496;2024-01-10T06:09:41;69.70;;;24.52;;
85017;SDS011;75340;52.622;13.496;2024-01-10T06:12:08;72.35;;;23.02;;
85017;SDS011;75340;52.622;13.496;2024-01-10T06:14:34;60.58;;;22.77;;
85017;SDS011;75340;52.622;13.496;2024-01-10T06:17:01;69.40;;;23.00;;
85017;SDS011;75340;52.622;13.496;2024-01-10T06:19:29;62.55;;;24.08;;
85017;SDS011;75340;52.622;13.496;2024-01-10T06:21:56;61.72;;;23.77;;
85017;SDS011;75340;52.622;13.496;2024-01-10T06:24:22;62.13;;;23.08;;
85017;SDS011;75340;52.622;13.496;2024-01-10T06:26:48;65.10;;;23.42;;
85017;SDS011;75340;52.622;13.496;2024-01-10T06:29:18;68.63;;;24.23;;
85017;SDS011;75340;52.622;13.496;2024-01-10T06:31:44;69.60;;;23.58;;
85017;SDS011;75340;52.622;13.496;2024-01-10T06:34:10;64.07;;;23.67;;
85017;SDS011;75340;52.622;13.496;2024-01-10T06:36:36;60.88;;;20.35;;
85017;SDS011;75340;52.622;13.496;2024-01-10T06:39:02;65.43;;;22.40;;
85017;SDS011;75340;52.622;13.496;2024-01-10T06:41:28;62.85;;;21.88;;
85017;SDS011;75340;52.622;13.496;2024-01-10T06:43:54;61.88;;;21.52;;
85017;SDS011;75340;52.622;13.496;2024-01-10T06:46:20;59.22;;;21.95;;
85017;SDS011;75340;52.622;13.496;2024-01-10T06:48:46;59.15;;;21.65;;
85017;SDS011;75340;52.622;13.496;2024-01-10T06:51:13;61.58;;;23.55;;
85017;SDS011;75340;52.622;13.496;2024-01-10T06:53:39;59.85;;;22.85;;
85017;SDS011;75340;52.622;13.496;2024-01-10T06:56:05;66.15;;;24.90;;
85017;SDS011;75340;52.622;13.496;2024-01-10T06:58:32;60.05;;;22.58;;
85017;SDS011;75340;52.622;13.496;2024-01-10T07:00:58;62.05;;;22.38;;
85017;SDS011;75340;52.622;13.496;2024-01-10T07:03:25;59.10;;;21.75;;
85017;SDS011;75340;52.622;13.496;2024-01-10T07:05:51;66.63;;;24.15;;
85017;SDS011;75340;52.622;13.496;2024-01-10T07:08:18;63.42;;;23.58;;
85017;SDS011;75340;52.622;13.496;2024-01-10T07:10:44;60.58;;;22.88;;
85017;SDS011;75340;52.622;13.496;2024-01-10T07:13:10;68.32;;;23.60;;
85017;SDS011;75340;52.622;13.496;2024-01-10T07:15:36;65.47;;;24.92;;
85017;SDS011;75340;52.622;13.496;2024-01-10T07:18:03;61.38;;;23.50;;
85017;SDS011;75340;52.622;13.496;2024-01-10T07:20:29;62.13;;;24.05;;
85017;SDS011;75340;52.622;13.496;2024-01-10T07:22:55;68.45;;;23.27;;
85017;SDS011;75340;52.622;13.496;2024-01-10T07:25:21;80.13;;;28.83;;
85017;SDS011;75340;52.622;13.496;2024-01-10T07:27:50;69.75;;;24.50;;
85017;SDS011;75340;52.622;13.496;2024-01-10T07:30:16;63.47;;;25.98;;
85017;SDS011;75340;52.622;13.496;2024-01-10T07:32:42;74.30;;;26.80;;
85017;SDS011;75340;52.622;13.496;2024-01-10T07:35:09;94.28;;;33.45;;
85017;SDS011;75340;52.622;13.496;2024-01-10T07:37:38;75.93;;;29.25;;
85017;SDS011;75340;52.622;13.496;2024-01-10T07:40:05;70.57;;;26.75;;
85017;SDS011;75340;52.622;13.496;2024-01-10T07:42:32;69.82;;;25.13;;
85017;SDS011;75340;52.622;13.496;2024-01-10T07:44:58;78.50;;;27.33;;
85017;SDS011;75340;52.622;13.496;2024-01-10T07:47:24;71.38;;;27.52;;
85017;SDS011;75340;52.622;13.496;2024-01-10T07:49:50;71.93;;;26.17;;
85017;SDS011;75340;52.622;13.496;2024-01-10T07:52:16;68.30;;;26.13;;
85017;SDS011;75340;52.622;13.496;2024-01-10T07:54:42;68.25;;;26.05;;
85017;SDS011;75340;52.622;13.496;2024-01-10T07:57:08;69.85;;;25.23;;
85017;SDS011;75340;52.622;13.496;2024-01-10T07:59:34;68.30;;;24.98;;
85017;SDS011;75340;52.622;13.496;2024-01-10T08:02:00;64.63;;;25.85;;
85017;SDS011;75340;52.622;13.496;2024-01-10T08:04:27;67.60;;;25.23;;
85017;SDS011;75340;52.622;13.496;2024-01-10T08:06:53;80.07;;;27.20;;
85017;SDS011;75340;52.622;13.496;2024-01-10T08:09:20;77.50;;;28.63;;
85017;SDS011;75340;52.622;13.496;2024-01-10T08:11:46;69.88;;;27.95;;
85017;SDS011;75340;52.622;13.496;2024-01-10T08:14:12;72.15;;;27.10;;
85017;SDS011;75340;52.622;13.496;2024-01-10T08:16:38;79.82;;;25.98;;
85017;SDS011;75340;52.622;13.496;2024-01-10T08:19:04;77.07;;;29.50;;
85017;SDS011;75340;52.622;13.496;2024-01-10T08:21:31;86.30;;;30.77;;
85017;SDS011;75340;52.622;13.496;2024-01-10T08:23:57;84.38;;;27.23;;
85017;SDS011;75340;52.622;13.496;2024-01-10T08:26:23;87.43;;;33.08;;
85017;SDS011;75340;52.622;13.496;2024-01-10T08:28:49;77.80;;;27.45;;
85017;SDS011;75340;52.622;13.496;2024-01-10T08:31:18;79.70;;;28.80;;
85017;SDS011;75340;52.622;13.496;2024-01-10T08:33:44;78.13;;;28.88;;
85017;SDS011;75340;52.622;13.496;2024-01-10T08:36:11;85.28;;;29.13;;
85017;SDS011;75340;52.622;13.496;2024-01-10T08:38:38;80.97;;;29.38;;
85017;SDS011;75340;52.622;13.496;2024-01-10T08:41:04;78.78;;;28.15;;
85017;SDS011;75340;52.622;13.496;2024-01-10T08:43:30;75.45;;;26.40;;
85017;SDS011;75340;52.622;13.496;2024-01-10T08:45:56;80.10;;;29.20;;
85017;SDS011;75340;52.622;13.496;2024-01-10T08:48:23;87.95;;;30.73;;
85017;SDS011;75340;52.622;13.496;2024-01-10T08:50:50;73.80;;;27.40;;
85017;SDS011;75340;52.622;13.496;2024-01-10T08:53:16;67.35;;;26.50;;
85017;SDS011;75340;52.622;13.496;2024-01-10T08:55:42;78.38;;;29.88;;
85017;SDS011;75340;52.622;13.496;2024-01-10T08:58:08;85.82;;;34.10;;
85017;SDS011;75340;52.622;13.496;2024-01-10T09:00:34;69.05;;;27.70;;
85017;SDS011;75340;52.622;13.496;2024-01-10T09:03:01;75.32;;;28.00;;
85017;SDS011;75340;52.622;13.496;2024-01-10T09:05:27;75.80;;;28.67;;
85017;SDS011;75340;52.622;13.496;2024-01-10T09:07:53;83.00;;;30.25;;
85017;SDS011;75340;52.622;13.496;2024-01-10T09:10:19;71.70;;;27.55;;
85017;SDS011;75340;52.622;13.496;2024-01-10T09:12:48;70.63;;;26.73;;
85017;SDS011;75340;52.622;13.496;2024-01-10T09:15:14;81.80;;;29.85;;
85017;SDS011;75340;52.622;13.496;2024-01-10T09:17:41;76.28;;;27.55;;
85017;SDS011;75340;52.622;13.496;2024-01-10T09:20:08;75.35;;;28.48;;
85017;SDS011;75340;52.622;13.496;2024-01-10T09:22:35;67.72;;;27.90;;
85017;SDS011;75340;52.622;13.496;2024-01-10T09:25:01;77.53;;;27.33;;
85017;SDS011;75340;52.622;13.496;2024-01-10T09:29:55;79.30;;;27.85;;
85017;SDS011;75340;52.622;13.496;2024-01-10T09:32:21;72.85;;;28.08;;
85017;SDS011;75340;52.622;13.496;2024-01-10T09:34:47;73.63;;;29.58;;
85017;SDS011;75340;52.622;13.496;2024-01-10T09:37:13;71.70;;;29.38;;
85017;SDS011;75340;52.622;13.496;2024-01-10T09:39:39;71.22;;;29.05;;
85017;SDS011;75340;52.622;13.496;2024-01-10T09:42:05;71.15;;;32.25;;
85017;SDS011;75340;52.622;13.496;2024-01-10T09:44:31;70.95;;;31.33;;
85017;SDS011;75340;52.622;13.496;2024-01-10T09:46:58;73.53;;;32.25;;
85017;SDS011;75340;52.622;13.496;2024-01-10T09:49:24;60.35;;;29.27;;
85017;SDS011;75340;52.622;13.496;2024-01-10T09:51:53;63.38;;;30.23;;
85017;SDS011;75340;52.622;13.496;2024-01-10T09:54:19;66.95;;;32.08;;
85017;SDS011;75340;52.622;13.496;2024-01-10T09:56:46;67.32;;;33.92;;
85017;SDS011;75340;52.622;13.496;2024-01-10T09:59:13;71.68;;;33.60;;
85017;SDS011;75340;52.622;13.496;2024-01-10T10:01:39;70.78;;;32.75;;
85017;SDS011;75340;52.622;13.496;2024-01-10T10:04:05;65.40;;;29.77;;
85017;SDS011;75340;52.622;13.496;2024-01-10T10:06:32;58.22;;;28.98;;
85017;SDS011;75340;52.622;13.496;2024-01-10T10:08:59;57.45;;;29.60;;
85017;SDS011;75340;52.622;13.496;2024-01-10T10:11:25;63.33;;;30.90;;
85017;SDS011;75340;52.622;13.496;2024-01-10T10:13:51;60.80;;;29.45;;
85017;SDS011;75340;52.622;13.496;2024-01-10T10:16:24;60.88;;;29.17;;
85017;SDS011;75340;52.622;13.496;2024-01-10T10:18:51;70.97;;;30.08;;
85017;SDS011;75340;52.622;13.496;2024-01-10T10:21:24;76.18;;;31.33;;
85017;SDS011;75340;52.622;13.496;2024-01-10T10:24:01;58.70;;;26.33;;
85017;SDS011;75340;52.622;13.496;2024-01-10T10:26:33;57.50;;;24.83;;
85017;SDS011;75340;52.622;13.496;2024-01-10T10:28:59;58.00;;;24.33;;
85017;SDS011;75340;52.622;13.496;2024-01-10T10:31:26;58.78;;;25.60;;
85017;SDS011;75340;52.622;13.496;2024-01-10T10:33:54;57.83;;;25.35;;
85017;SDS011;75340;52.622;13.496;2024-01-10T10:36:20;60.10;;;24.63;;
85017;SDS011;75340;52.622;13.496;2024-01-10T10:38:46;55.08;;;23.17;;
85017;SDS011;75340;52.622;13.496;2024-01-10T10:41:16;54.85;;;23.52;;
85017;SDS011;75340;52.622;13.496;2024-01-10T10:43:42;57.08;;;24.05;;
85017;SDS011;75340;52.622;13.496;2024-01-10T10:46:09;55.33;;;24.25;;
85017;SDS011;75340;52.622;13.496;2024-01-10T10:48:37;60.75;;;26.55;;
85017;SDS011;75340;52.622;13.496;2024-01-10T10:53:31;59.38;;;23.63;;
85017;SDS011;75340;52.622;13.496;2024-01-10T10:55:58;48.83;;;20.70;;
85017;SDS011;75340;52.622;13.496;2024-01-10T10:58:25;54.78;;;22.75;;
85017;SDS011;75340;52.622;13.496;2024-01-10T11:00:51;61.60;;;23.40;;
85017;SDS011;75340;52.622;13.496;2024-01-10T11:03:17;56.28;;;23.48;;
85017;SDS011;75340;52.622;13.496;2024-01-10T11:05:44;53.10;;;22.63;;
85017;SDS011;75340;52.622;13.496;2024-01-10T11:08:11;57.45;;;23.48;;
85017;SDS011;75340;52.622;13.496;2024-01-10T11:10:38;57.45;;;22.17;;
85017;SDS011;75340;52.622;13.496;2024-01-10T11:13:18;50.10;;;22.25;;
85017;SDS011;75340;52.622;13.496;2024-01-10T11:21:06;43.92;;;20.13;;
85017;SDS011;75340;52.622;13.496;2024-01-10T11:26:04;37.85;;;17.70;;
85017;SDS011;75340;52.622;13.496;2024-01-10T11:28:30;39.97;;;17.75;;
85017;SDS011;75340;52.622;13.496;2024-01-10T11:30:56;36.20;;;16.30;;
85017;SDS011;75340;52.622;13.496;2024-01-10T11:33:24;36.92;;;16.67;;
85017;SDS011;75340;52.622;13.496;2024-01-10T11:36:33;40.22;;;15.88;;
85017;SDS011;75340;52.622;13.496;2024-01-10T11:38:44;39.10;;;16.48;;
85017;SDS011;75340;52.622;13.496;2024-01-10T11:41:10;39.75;;;16.55;;
85017;SDS011;75340;52.622;13.496;2024-01-10T11:43:37;40.70;;;16.50;;
85017;SDS011;75340;52.622;13.496;2024-01-10T11:46:05;40.58;;;16.65;;
85017;SDS011;75340;52.622;13.496;2024-01-10T11:48:32;45.20;;;17.13;;
85017;SDS011;75340;52.622;13.496;2024-01-10T11:50:58;42.38;;;18.15;;
85017;SDS011;75340;52.622;13.496;2024-01-10T11:55:51;38.78;;;19.27;;
85017;SDS011;75340;52.622;13.496;2024-01-10T11:58:17;36.38;;;16.73;;
85017;SDS011;75340;52.622;13.496;2024-01-10T12:00:43;40.88;;;18.15;;
85017;SDS011;75340;52.622;13.496;2024-01-10T12:03:13;38.85;;;17.17;;
85017;SDS011;75340;52.622;13.496;2024-01-10T12:05:40;40.05;;;17.38;;
85017;SDS011;75340;52.622;13.496;2024-01-10T12:08:08;34.88;;;16.33;;
85017;SDS011;75340;52.622;13.496;2024-01-10T12:10:34;43.72;;;18.75;;
85017;SDS011;75340;52.622;13.496;2024-01-10T12:15:28;39.50;;;17.27;;
85017;SDS011;75340;52.622;13.496;2024-01-10T12:17:54;37.90;;;16.90;;
85017;SDS011;75340;52.622;13.496;2024-01-10T12:20:20;42.65;;;18.30;;
85017;SDS011;75340;52.622;13.496;2024-01-10T12:22:46;93.13;;;39.22;;
85017;SDS011;75340;52.622;13.496;2024-01-10T12:25:12;44.63;;;19.98;;
85017;SDS011;75340;52.622;13.496;2024-01-10T12:27:39;44.58;;;19.02;;
85017;SDS011;75340;52.622;13.496;2024-01-10T12:30:05;39.67;;;16.45;;
85017;SDS011;75340;52.622;13.496;2024-01-10T12:32:32;41.08;;;16.85;;
85017;SDS011;75340;52.622;13.496;2024-01-10T12:35:02;41.50;;;17.80;;
85017;SDS011;75340;52.622;13.496;2024-01-10T12:37:28;40.28;;;18.67;;
85017;SDS011;75340;52.622;13.496;2024-01-10T12:39:55;37.55;;;16.98;;
85017;SDS011;75340;52.622;13.496;2024-01-10T12:42:21;43.60;;;17.13;;
85017;SDS011;75340;52.622;13.496;2024-01-10T12:44:47;41.10;;;17.52;;
85017;SDS011;75340;52.622;13.496;2024-01-10T12:47:20;38.17;;;16.98;;
85017;SDS011;75340;52.622;13.496;2024-01-10T12:49:46;44.67;;;18.92;;
85017;SDS011;75340;52.622;13.496;2024-01-10T12:52:12;42.15;;;18.00;;
85017;SDS011;75340;52.622;13.496;2024-01-10T12:54:39;42.22;;;18.35;;
85017;SDS011;75340;52.622;13.496;2024-01-10T12:57:05;37.85;;;17.23;;
85017;SDS011;75340;52.622;13.496;2024-01-10T12:59:34;40.45;;;17.38;;
85017;SDS011;75340;52.622;13.496;2024-01-10T13:02:00;36.58;;;17.60;;
85017;SDS011;75340;52.622;13.496;2024-01-10T13:04:27;40.47;;;18.65;;
85017;SDS011;75340;52.622;13.496;2024-01-10T13:06:53;39.90;;;18.27;;
85017;SDS011;75340;52.622;13.496;2024-01-10T13:09:19;41.13;;;17.33;;
85017;SDS011;75340;52.622;13.496;2024-01-10T13:11:45;39.28;;;17.45;;
85017;SDS011;75340;52.622;13.496;2024-01-10T13:14:12;38.28;;;17.90;;
85017;SDS011;75340;52.622;13.496;2024-01-10T13:16:38;40.22;;;18.50;;
85017;SDS011;75340;52.622;13.496;2024-01-10T13:19:04;40.00;;;16.02;;
85017;SDS011;75340;52.622;13.496;2024-01-10T13:21:30;48.50;;;20.42;;
85017;SDS011;75340;52.622;13.496;2024-01-10T13:23:56;36.55;;;16.42;;
85017;SDS011;75340;52.622;13.496;2024-01-10T13:26:22;42.25;;;17.95;;
85017;SDS011;75340;52.622;13.496;2024-01-10T13:28:48;39.35;;;17.67;;
85017;SDS011;75340;52.622;13.496;2024-01-10T13:31:14;39.95;;;18.92;;
85017;SDS011;75340;52.622;13.496;2024-01-10T13:33:40;42.13;;;16.83;;
85017;SDS011;75340;52.622;13.496;2024-01-10T13:36:06;39.70;;;17.83;;
85017;SDS011;75340;52.622;13.496;2024-01-10T13:38:33;44.75;;;18.42;;
85017;SDS011;75340;52.622;13.496;2024-01-10T13:41:00;41.45;;;17.80;;
85017;SDS011;75340;52.622;13.496;2024-01-10T13:43:27;41.45;;;17.10;;
85017;SDS011;75340;52.622;13.496;2024-01-10T13:45:53;41.22;;;17.45;;
85017;SDS011;75340;52.622;13.496;2024-01-10T13:48:19;39.00;;;16.70;;
85017;SDS011;75340;52.622;13.496;2024-01-10T13:50:45;46.58;;;17.30;;
85017;SDS011;75340;52.622;13.496;2024-01-10T13:53:11;44.67;;;18.75;;
85017;SDS011;75340;52.622;13.496;2024-01-10T13:55:38;41.83;;;17.60;;
85017;SDS011;75340;52.622;13.496;2024-01-10T13:58:04;44.83;;;18.67;;
85017;SDS011;75340;52.622;13.496;2024-01-10T14:00:30;43.10;;;18.15;;
85017;SDS011;75340;52.622;13.496;2024-01-10T14:02:56;46.88;;;19.10;;
85017;SDS011;75340;52.622;13.496;2024-01-10T14:05:26;41.83;;;17.55;;
85017;SDS011;75340;52.622;13.496;2024-01-10T14:07:52;43.53;;;17.55;;
85017;SDS011;75340;52.622;13.496;2024-01-10T14:10:18;35.35;;;15.95;;
85017;SDS011;75340;52.622;13.496;2024-01-10T14:12:44;47.72;;;18.33;;
85017;SDS011;75340;52.622;13.496;2024-01-10T14:15:13;40.92;;;16.45;;
85017;SDS011;75340;52.622;13.496;2024-01-10T14:17:40;48.20;;;18.83;;
85017;SDS011;75340;52.622;13.496;2024-01-10T14:20:06;46.65;;;18.33;;
85017;SDS011;75340;52.622;13.496;2024-01-10T14:22:37;42.08;;;17.70;;